Friday, February 23, 2018, 2:57 PM EST
Back to Local

KGSB, Seymour-johnson Air Force Base

Location: Goldsboro, NC, United States Lat: 35.333
Local Time: 2:57 PM EST (19:57 GMT) Lon: -77.967
Time Zone: US/Eastern Elev: 108 ft

Show me the last for .
Show Decoded

2018-02-23 13:56 METAR KGSB 231856Z AUTO 00000KT 10SM FEW042 23/16 A3038 RMK AO2 SLP290 T02310157
                 $ =
2018-02-23 12:56 METAR KGSB 231756Z 21003KT 10SM SCT028 23/16 A3041 RMK AO2A SLP300 T02260157
                 10234 20126 57025 $ =
2018-02-23 11:56 METAR KGSB 231656Z 08004KT 10SM FEW019 20/14 A3044 RMK AO2A SLP311 T02030142 $ =
2018-02-23 10:56 METAR KGSB 231556Z 10005KT 6SM BR SCT008 BKN050 17/13 A3047 RMK AO2A SLP321
                 T01690128 $ =
2018-02-23 10:50 METAR KGSB 231550Z 09006KT 6SM BR SCT008 BKN050 17/13 A3047 RMK SLP321 $ =
2018-02-23 09:56 METAR KGSB 231456Z 06005KT 6SM BR SCT007 BKN011 OVC020 14/12 A3048 RMK AO2A
                 SLP324 T01390116 50003 $ =
2018-02-23 09:35 METAR KGSB 231435Z 04004KT 6SM BR OVC007 13/11 A3049 RMK AO2A SLP328 $ =
2018-02-23 08:56 METAR KGSB 231356Z 03003KT 4SM BR OVC006 13/12 A3049 RMK AO2A SLP328 T01280115 $
                 =
2018-02-23 07:56 METAR KGSB 231256Z 06005KT 4SM BR OVC005 13/12 A3049 RMK AO2A SLP328 T01280117 $
                 =
2018-02-23 07:44 METAR KGSB 231244Z 05005KT 4SM BR OVC005 13/12 A3049 RMK AO2A SLP328 $ =
2018-02-23 07:14 METAR KGSB 231214Z 05006KT 4SM BR OVC006 13/12 A3048 RMK AO2A SLP324 $ =
2018-02-23 06:56 METAR KGSB 231156Z 04005KT 4SM BR OVC007 13/12 A3047 RMK AO2A SLP321 T01310118
                 10171 20131 52018 $ =
2018-02-23 05:56 METAR KGSB 231056Z AUTO 04005KT 10SM OVC007 14/13 A3045 RMK AO2 CIG 005V007 CIG
                 006 RWY08 SLP314 T01440133 $ =
2018-02-23 05:50 METAR KGSB 231050Z AUTO 04006KT 10SM OVC007 15/14 A3045 RMK AO2 CIG 005V007 CIG
                 006 RWY08 SLP314 $ =
2018-02-23 05:32 METAR KGSB 231032Z AUTO 03008KT 10SM BKN005 OVC009 16/15 A3044 RMK AO2 CIG
                 005V009 SLP310 $ =
2018-02-23 04:59 METAR KGSB 230959Z AUTO 03004KT 10SM OVC008 16/16 A3044 RMK AO2 CIG 006V008 CIG
                 007 RWY08 SLP310 $ =
2018-02-23 04:56 METAR KGSB 230956Z AUTO 04003KT 10SM OVC006 16/16 A3044 RMK AO2 SLP310 T01630156
                 $ =
2018-02-23 04:47 METAR KGSB 230947Z AUTO 04004KT 10SM OVC006 16/16 A3043 RMK AO2 SLP307 $ =
2018-02-23 04:20 METAR KGSB 230920Z AUTO 02004KT 10SM BKN005 BKN050 16/16 A3043 RMK AO2 CIG
                 005V050 BKN005 V SCT SLP307 $ =
2018-02-23 03:56 METAR KGSB 230856Z AUTO 00000KT 5SM BR OVC050 14/14 A3042 RMK AO2 SLP304
                 T01440138 55001 $ =
2018-02-23 02:56 METAR KGSB 230756Z AUTO 00000KT 10SM CLR 16/16 A3042 RMK AO2 SLP304 T01610155 $
                 =
2018-02-23 01:56 METAR KGSB 230656Z AUTO 13003KT 10SM CLR 14/14 A3042 RMK AO2 SLP304 T01430137 $
                 =
2018-02-23 00:56 METAR KGSB 230556Z AUTO 17003KT 10SM CLR 17/15 A3042 RMK AO2 SLP304 T01650152
                 10196 20149 50001 $ =
2018-02-22 23:56 METAR KGSB 230456Z AUTO 00000KT 10SM CLR 17/15 A3043 RMK AO2 SLP307 T01650148
                 402620152 $ =
2018-02-22 22:56 METAR KGSB 230356Z AUTO 00000KT 10SM CLR 18/15 A3043 RMK AO2 SLP307 T01830153 $
                 =
2018-02-22 21:56 METAR KGSB 230256Z AUTO 18004KT 10SM CLR 19/16 A3042 RMK AO2 SLP304 T01920158
                 52013 $ =
2018-02-22 20:56 METAR KGSB 230156Z AUTO 15004KT 10SM CLR 19/16 A3041 RMK AO2 SLP300 T01890161 $
                 =
2018-02-22 19:56 METAR KGSB 230056Z AUTO 00000KT 10SM CLR 18/16 A3039 RMK AO2 SLP294 T01800158 $
                 =
2018-02-22 18:56 METAR KGSB 222356Z AUTO 00000KT 10SM CLR 19/16 A3038 RMK AO2 SLP290 T01930159
                 10262 20193 53002 $ =
2018-02-22 17:56 METAR KGSB 222256Z AUTO 20003KT 10SM CLR 24/17 A3038 RMK AO2 SLP290 T02370165 $
                 =
2018-02-22 16:56 METAR KGSB 222156Z AUTO 23008KT 10SM CLR 25/16 A3037 RMK AO2 SLP287 T02540160 $
                 =
2018-02-22 15:56 METAR KGSB 222056Z AUTO 24011KT 10SM BKN055 26/17 A3038 RMK AO2 SLP290 T02580166
                 57018 $ =

Support USWX by starting your Amazon purchase here.